createdAt,value
2023-05-23T00:01:10.109Z,91829.41
2023-05-23T00:03:37.499Z,91833.63
2023-05-23T00:06:06.960Z,91831.03
2023-05-23T00:08:33.657Z,91838.78
2023-05-23T00:11:00.279Z,91836.16
2023-05-23T00:13:27.051Z,91840.38
2023-05-23T00:15:53.637Z,91838.94
2023-05-23T00:18:20.188Z,91845.81
2023-05-23T00:20:47.095Z,91847.69
2023-05-23T00:23:20.897Z,91849.53
2023-05-23T00:25:53.440Z,91846.06
2023-05-23T00:28:20.298Z,91847.34
2023-05-23T00:30:46.935Z,91841.81
2023-05-23T00:33:14.591Z,91841.66
2023-05-23T00:35:43.995Z,91843.72
2023-05-23T00:38:11.635Z,91846.47
2023-05-23T00:40:38.445Z,91849.25
2023-05-23T00:43:05.020Z,91845.59
2023-05-23T00:45:31.735Z,91842.66
2023-05-23T00:48:00.219Z,91845.44
2023-05-23T00:50:30.817Z,91853.16
2023-05-23T00:53:00.571Z,91845.28
2023-05-23T00:55:28.505Z,91845.28
2023-05-23T00:57:58.167Z,91849.38
2023-05-23T01:00:26.093Z,91842.34
2023-05-23T01:02:53.566Z,91836.81
2023-05-23T01:05:22.607Z,91841.66
2023-05-23T01:07:50.430Z,91837.53
2023-05-23T01:10:21.266Z,91832.59
2023-05-23T01:13:21.368Z,91833.31
2023-05-23T01:15:56.796Z,91832.59
2023-05-23T01:18:38.293Z,91830.25
2023-05-23T01:21:17.723Z,91832.44
2023-05-23T01:23:50.126Z,91838.56
2023-05-23T01:26:28.534Z,91835.06
2023-05-23T01:29:05.776Z,91837.81
2023-05-23T01:31:35.330Z,91830.69
2023-05-23T01:34:03.750Z,91839.16
2023-05-23T01:36:35.320Z,91838.84
2023-05-23T01:39:02.280Z,91842.94
2023-05-23T01:41:28.825Z,91835.91
2023-05-23T01:43:56.231Z,91834.63
2023-05-23T01:46:24.175Z,91840.28
2023-05-23T01:48:51.103Z,91826.56
2023-05-23T01:51:17.727Z,91828.75
2023-05-23T01:53:44.404Z,91835.06
2023-05-23T01:56:11.008Z,91825.28
2023-05-23T01:58:37.754Z,91826.88
2023-05-23T02:01:04.546Z,91828.38
2023-05-23T02:03:31.279Z,91825.00
2023-05-23T02:05:57.815Z,91825.72
2023-05-23T02:08:24.412Z,91823.53
2023-05-23T02:10:52.018Z,91829.66
2023-05-23T02:13:18.806Z,91824.69
2023-05-23T02:15:45.361Z,91836.38
2023-05-23T02:18:12.010Z,91833.28
2023-05-23T02:20:38.623Z,91827.75
2023-05-23T02:23:05.262Z,91829.78
2023-05-23T02:25:31.841Z,91824.81
2023-05-23T02:27:58.380Z,91828.91
2023-05-23T02:30:24.901Z,91830.22
2023-05-23T02:32:51.774Z,91840.00
2023-05-23T02:35:18.329Z,91834.47
2023-05-23T02:37:44.848Z,91832.97
2023-05-23T02:40:12.272Z,91836.94
2023-05-23T02:42:38.798Z,91835.47
2023-05-23T02:45:06.124Z,91838.09
2023-05-23T02:47:32.673Z,91829.78
2023-05-23T02:49:59.216Z,91838.09
2023-05-23T02:52:25.964Z,91841.56
2023-05-23T02:54:52.476Z,91844.94
2023-05-23T02:57:18.980Z,91835.16
2023-05-23T02:59:45.597Z,91831.06
2023-05-23T03:02:12.349Z,91831.06
2023-05-23T03:04:39.060Z,91822.03
2023-05-23T03:07:11.503Z,91832.22
2023-05-23T03:09:43.628Z,91837.78
2023-05-23T03:12:10.339Z,91835.00
2023-05-23T03:14:36.863Z,91834.28
2023-05-23T03:17:04.064Z,91834.84
2023-05-23T03:19:31.594Z,91832.81
2023-05-23T03:21:59.111Z,91829.16
2023-05-23T03:24:25.984Z,91830.63
2023-05-23T03:26:52.527Z,91815.44
2023-05-23T03:29:19.014Z,91819.66
2023-05-23T03:31:45.530Z,91821.72
2023-05-23T03:34:12.998Z,91828.00
2023-05-23T03:36:40.045Z,91825.38
2023-05-23T03:39:06.612Z,91824.22
2023-05-23T03:41:33.154Z,91822.31
2023-05-23T03:44:00.863Z,91830.06
2023-05-23T03:46:27.486Z,91834.16
2023-05-23T03:48:54.095Z,91838.25
2023-05-23T03:51:20.876Z,91834.16
2023-05-23T03:53:47.391Z,91832.69
2023-05-23T03:56:14.035Z,91839.38
2023-05-23T03:58:40.515Z,91841.28
2023-05-23T04:01:07.026Z,91849.47
2023-05-23T04:03:33.692Z,91847.25
2023-05-23T04:06:00.986Z,91847.25
2023-05-23T04:08:29.333Z,91844.34
2023-05-23T04:10:56.132Z,91838.78
2023-05-23T04:13:24.839Z,91852.81
2023-05-23T04:15:52.565Z,91842.84
2023-05-23T04:18:19.073Z,91844.19
2023-05-23T04:20:46.629Z,91838.63
2023-05-23T04:23:13.020Z,91837.91
2023-05-23T04:25:39.815Z,91834.38
2023-05-23T04:28:06.627Z,91834.25
2023-05-23T04:30:33.424Z,91842.56
2023-05-23T04:33:00.130Z,91843.88
2023-05-23T04:35:29.691Z,91839.81
2023-05-23T04:37:56.809Z,91843.88
2023-05-23T04:40:24.322Z,91849.56
2023-05-23T04:42:51.735Z,91850.88
2023-05-23T04:45:19.532Z,91849.41
2023-05-23T04:47:46.679Z,91853.66
2023-05-23T04:50:14.958Z,91841.84
2023-05-23T04:52:41.642Z,91852.19
2023-05-23T04:55:08.801Z,91852.03
2023-05-23T04:57:35.924Z,91852.59
2023-05-23T05:00:05.331Z,91853.19
2023-05-23T05:02:35.309Z,91851.88
2023-05-23T05:05:02.083Z,91864.44
2023-05-23T05:07:29.468Z,91862.97
2023-05-23T05:09:57.267Z,91869.25
2023-05-23T05:12:25.150Z,91864.44
2023-05-23T05:14:51.665Z,91865.88
2023-05-23T05:17:19.360Z,91868.50
2023-05-23T05:19:46.391Z,91867.22
2023-05-23T05:22:12.926Z,91863.69
2023-05-23T05:24:40.955Z,91863.28
2023-05-23T05:27:09.530Z,91861.97
2023-05-23T05:29:36.626Z,91869.13
2023-05-23T05:32:03.480Z,91874.69
2023-05-23T05:34:30.021Z,91870.03
2023-05-23T05:36:56.953Z,91873.28
2023-05-23T05:39:24.994Z,91870.81
2023-05-23T05:41:51.519Z,91875.94
2023-05-23T05:44:18.282Z,91876.69
2023-05-23T05:46:45.189Z,91878.13
2023-05-23T05:49:12.491Z,91881.81
2023-05-23T05:51:39.299Z,91881.06
2023-05-23T05:54:05.906Z,91879.91
2023-05-23T05:56:32.763Z,91878.44
2023-05-23T05:58:59.285Z,91888.22
2023-05-23T06:01:26.811Z,91885.44
2023-05-23T06:03:53.564Z,91891.00
2023-05-23T06:06:20.278Z,91886.94
2023-05-23T06:08:46.918Z,91886.94
2023-05-23T06:11:13.555Z,91892.47
2023-05-23T06:13:40.083Z,91896.53
2023-05-23T06:16:07.334Z,91891.00
2023-05-23T06:18:34.039Z,91897.84
2023-05-23T06:21:00.878Z,91896.53
2023-05-23T06:23:27.412Z,91895.78
2023-05-23T06:25:54.018Z,91897.84
2023-05-23T06:28:20.570Z,91898.44
2023-05-23T06:30:47.096Z,91899.16
2023-05-23T06:33:13.662Z,91902.50
2023-05-23T06:35:40.372Z,91900.31
2023-05-23T06:38:06.973Z,91896.22
2023-05-23T06:40:33.529Z,91894.78
2023-05-23T06:43:00.089Z,91890.38
2023-05-23T06:45:26.669Z,91890.53
2023-05-23T06:47:53.414Z,91895.50
2023-05-23T06:50:20.194Z,91898.28
2023-05-23T06:52:47.189Z,91890.69
2023-05-23T06:55:18.328Z,91901.75
2023-05-23T06:57:45.756Z,91899.00
2023-05-23T07:00:13.826Z,91901.75
2023-05-23T07:02:40.631Z,91903.25
2023-05-23T07:05:07.650Z,91897.69
2023-05-23T07:07:34.272Z,91899.00
2023-05-23T07:10:00.897Z,91903.41
2023-05-23T07:12:27.404Z,91906.88
2023-05-23T07:14:53.908Z,91901.91
2023-05-23T07:17:20.631Z,91912.00
2023-05-23T07:19:47.416Z,91908.69
2023-05-23T07:22:13.922Z,91907.53
2023-05-23T07:24:40.543Z,91912.63
2023-05-23T07:27:07.105Z,91910.03
2023-05-23T07:29:33.628Z,91905.94
2023-05-23T07:32:00.177Z,91906.09
2023-05-23T07:34:26.946Z,91903.31
2023-05-23T07:36:53.562Z,91897.94
2023-05-23T07:39:22.287Z,91896.59
2023-05-23T07:41:49.258Z,91902.16
2023-05-23T07:44:16.696Z,91901.44
2023-05-23T07:46:43.279Z,91901.44
2023-05-23T07:49:10.004Z,91902.16
2023-05-23T07:51:36.991Z,91897.34
2023-05-23T07:54:03.616Z,91897.34
2023-05-23T07:56:30.189Z,91896.59
2023-05-23T07:58:56.792Z,91892.53
2023-05-23T08:01:24.995Z,91898.09
2023-05-23T08:03:51.688Z,91893.69
2023-05-23T08:06:18.203Z,91895.31
2023-05-23T08:08:44.744Z,91891.06
2023-05-23T08:11:11.321Z,91897.34
2023-05-23T08:13:37.868Z,91891.06
2023-05-23T08:16:04.445Z,91893.84
2023-05-23T08:18:31.160Z,91888.88
2023-05-23T08:20:57.776Z,91889.59
2023-05-23T08:23:24.345Z,91893.69
2023-05-23T08:25:51.831Z,91890.94
2023-05-23T08:28:18.414Z,91895.16
2023-05-23T08:30:45.029Z,91891.78
2023-05-23T08:33:11.610Z,91893.84
2023-05-23T08:35:38.296Z,91891.06
2023-05-23T08:38:09.859Z,91894.00
2023-05-23T08:40:37.278Z,91887.00
2023-05-23T08:43:04.855Z,91880.13
2023-05-23T08:45:31.325Z,91890.50
2023-05-23T08:48:01.084Z,91881.59
2023-05-23T08:50:30.661Z,91881.75
2023-05-23T08:52:59.268Z,91878.97
2023-05-23T08:55:28.377Z,91874.16
2023-05-23T08:57:56.302Z,91879.84
2023-05-23T09:00:25.327Z,91876.50
2023-05-23T09:02:52.781Z,91877.97
2023-05-23T09:05:19.353Z,91875.34
2023-05-23T09:07:51.716Z,91866.44
2023-05-23T09:10:22.413Z,91861.06
2023-05-23T09:12:49.392Z,91859.16
2023-05-23T09:15:17.135Z,91853.75
2023-05-23T09:17:44.968Z,91851.28
2023-05-23T09:20:14.698Z,91843.72
2023-05-23T09:22:45.858Z,91844.56
2023-05-23T09:25:12.458Z,91837.00
2023-05-23T09:27:38.997Z,91838.63
2023-05-23T09:30:07.163Z,91826.94
2023-05-23T09:32:33.777Z,91827.69
2023-05-23T09:35:04.708Z,91829.88
2023-05-23T09:37:31.396Z,91821.53
2023-05-23T09:39:59.664Z,91806.38
2023-05-23T09:42:26.296Z,91817.47
2023-05-23T09:44:53.917Z,91812.06
2023-05-23T09:47:20.636Z,91814.25
2023-05-23T09:49:48.104Z,91809.72
2023-05-23T09:52:14.800Z,91804.31
2023-05-23T09:54:41.393Z,91804.47
2023-05-23T09:57:11.197Z,91801.13
2023-05-23T09:59:41.244Z,91792.06
2023-05-23T10:02:17.013Z,91790.91
2023-05-23T10:04:44.269Z,91787.38
2023-05-23T10:07:17.286Z,91779.22
2023-05-23T10:09:55.846Z,91768.81
2023-05-23T10:12:44.681Z,91777.28
2023-05-23T10:15:14.254Z,91767.66
2023-05-23T10:18:10.114Z,91769.13
2023-05-23T10:20:40.228Z,91773.38
2023-05-23T10:23:07.369Z,91765.75
2023-05-23T10:25:36.968Z,91766.50
2023-05-23T10:28:05.020Z,91765.91
2023-05-23T10:30:32.003Z,91758.31
2023-05-23T10:32:59.580Z,91755.69
2023-05-23T10:35:55.816Z,91757.13
2023-05-23T10:38:36.729Z,91753.06
2023-05-23T10:41:16.863Z,91744.88
2023-05-23T10:44:05.383Z,91744.88
2023-05-23T10:46:54.237Z,91741.50
2023-05-23T10:49:42.016Z,91739.59
2023-05-23T10:52:10.457Z,91729.97
2023-05-23T10:54:41.930Z,91725.84
2023-05-23T10:57:10.897Z,91730.81
2023-05-23T10:59:39.306Z,91735.06
2023-05-23T11:02:17.993Z,91733.16
2023-05-23T11:04:45.019Z,91735.38
2023-05-23T11:07:31.927Z,91728.47
2023-05-23T11:10:08.480Z,91721.59
2023-05-23T11:12:40.239Z,91722.94
2023-05-23T11:15:27.064Z,91722.34
2023-05-23T11:17:55.155Z,91719.56
2023-05-23T11:20:27.193Z,91714.00
2023-05-23T11:22:55.820Z,91726.44
2023-05-23T11:25:40.961Z,91723.06
2023-05-23T11:28:07.710Z,91717.53
2023-05-23T11:30:37.324Z,91705.69
2023-05-23T11:33:08.932Z,91722.34
2023-05-23T11:35:36.531Z,91712.69
2023-05-23T11:38:05.028Z,91718.25
2023-05-23T11:40:34.163Z,91714.16
2023-05-23T11:43:02.340Z,91702.91
2023-05-23T11:45:31.721Z,91704.38
2023-05-23T11:47:58.609Z,91710.03
2023-05-23T11:50:25.363Z,91692.69
2023-05-23T11:52:52.129Z,91696.31
2023-05-23T11:55:22.602Z,91695.00
2023-05-23T11:57:49.941Z,91692.22
2023-05-23T12:00:17.239Z,91690.91
2023-05-23T12:02:45.183Z,91689.59
2023-05-23T12:05:14.088Z,91684.03
2023-05-23T12:07:44.881Z,91675.56
2023-05-23T12:10:11.798Z,91670.00
2023-05-23T12:12:38.542Z,91671.47
2023-05-23T12:15:05.460Z,91665.31
2023-05-23T12:17:33.171Z,91666.19
2023-05-23T12:20:00.023Z,91669.13
2023-05-23T12:22:28.534Z,91658.00
2023-05-23T12:24:56.434Z,91662.38
2023-05-23T12:27:35.714Z,91656.22
2023-05-23T12:30:14.411Z,91654.19
2023-05-23T12:32:42.339Z,91651.53
2023-05-23T12:35:10.752Z,91651.53
2023-05-23T12:37:43.103Z,91640.44
2023-05-23T12:40:16.663Z,91646.72
2023-05-23T12:42:53.982Z,91653.00
2023-05-23T12:45:30.759Z,91648.91
2023-05-23T12:47:57.305Z,91648.91
2023-05-23T12:50:23.858Z,91636.59
2023-05-23T12:52:50.541Z,91629.59
2023-05-23T12:55:17.052Z,91638.06
2023-05-23T12:57:44.318Z,91622.84
2023-05-23T13:00:11.779Z,91622.25
2023-05-23T13:02:39.396Z,91626.47
2023-05-23T13:05:06.559Z,91620.94
2023-05-23T13:07:33.109Z,91620.22
2023-05-23T13:09:59.763Z,91620.34
2023-05-23T13:12:26.365Z,91619.03
2023-05-23T13:14:53.004Z,91613.47
2023-05-23T13:17:19.551Z,91620.50
2023-05-23T13:19:46.417Z,91615.66
2023-05-23T13:22:13.229Z,91608.06
2023-05-23T13:24:40.786Z,91610.84
2023-05-23T13:27:07.635Z,91612.03
2023-05-23T13:29:34.508Z,91614.66
2023-05-23T13:32:01.398Z,91611.75
2023-05-23T13:34:28.725Z,91613.19
2023-05-23T13:36:55.654Z,91614.66
2023-05-23T13:39:22.878Z,91611.28
2023-05-23T13:41:52.426Z,91609.38
2023-05-23T13:44:18.996Z,91613.47
2023-05-23T13:46:45.691Z,91608.66
2023-05-23T13:49:12.379Z,91616.09
2023-05-23T13:51:38.976Z,91612.72
2023-05-23T13:54:06.095Z,91613.34
2023-05-23T13:56:33.677Z,91617.31
2023-05-23T13:59:00.523Z,91615.38
2023-05-23T14:01:27.280Z,91617.31
2023-05-23T14:03:54.424Z,91624.31
2023-05-23T14:06:21.317Z,91617.31
2023-05-23T14:08:47.839Z,91622.84
2023-05-23T14:11:14.396Z,91622.13
2023-05-23T14:13:40.961Z,91622.84
2023-05-23T14:16:07.558Z,91625.50
2023-05-23T14:18:34.091Z,91629.72
2023-05-23T14:21:00.701Z,91632.63
2023-05-23T14:23:27.288Z,91630.00
2023-05-23T14:25:53.787Z,91626.47
2023-05-23T14:28:20.362Z,91632.31
2023-05-23T14:30:46.867Z,91631.88
2023-05-23T14:33:13.436Z,91630.69
2023-05-23T14:35:40.346Z,91632.16
2023-05-23T14:38:06.995Z,91632.16
2023-05-23T14:40:33.511Z,91642.69
2023-05-23T14:43:00.188Z,91633.63
2023-05-23T14:45:27.365Z,91638.44
2023-05-23T14:47:54.033Z,91643.25
2023-05-23T14:50:20.596Z,91632.75
2023-05-23T14:52:47.176Z,91633.34
2023-05-23T14:55:13.767Z,91631.88
2023-05-23T14:57:40.358Z,91628.94
2023-05-23T15:00:08.043Z,91628.94
2023-05-23T15:02:35.010Z,91626.75
2023-05-23T15:05:01.712Z,91631.63
2023-05-23T15:07:28.269Z,91626.75
2023-05-23T15:09:54.853Z,91631.72
2023-05-23T15:12:21.601Z,91627.50
2023-05-23T15:14:48.376Z,91625.59
2023-05-23T15:17:22.970Z,91624.13
2023-05-23T15:19:50.827Z,91624.88
2023-05-23T15:22:34.299Z,91628.94
2023-05-23T15:25:04.179Z,91626.06
2023-05-23T15:27:30.726Z,91631.63
2023-05-23T15:29:57.251Z,91635.69
2023-05-23T15:32:24.000Z,91630.88
2023-05-23T15:34:50.746Z,91631.63
2023-05-23T15:37:17.965Z,91635.69
2023-05-23T15:39:44.653Z,91646.81
2023-05-23T15:42:11.260Z,91646.81
2023-05-23T15:44:38.028Z,91654.41
2023-05-23T15:47:05.214Z,91645.34
2023-05-23T15:49:31.766Z,91650.91
2023-05-23T15:51:58.293Z,91659.81
2023-05-23T15:54:24.862Z,91658.38
2023-05-23T15:56:51.369Z,91664.66
2023-05-23T15:59:17.967Z,91677.06
2023-05-23T16:01:44.595Z,91672.84
2023-05-23T16:04:11.205Z,91681.94
2023-05-23T16:06:39.085Z,91690.97
2023-05-23T16:09:05.658Z,91696.53
2023-05-23T16:11:32.282Z,91713.19
2023-05-23T16:13:59.098Z,91713.19
2023-05-23T16:16:25.850Z,91726.47
2023-05-23T16:18:52.455Z,91731.34
2023-05-23T16:21:20.754Z,91734.09
2023-05-23T16:23:50.959Z,91748.72
2023-05-23T16:26:18.714Z,91748.00
2023-05-23T16:28:45.518Z,91756.94
2023-05-23T16:31:16.843Z,91771.38
2023-05-23T16:33:44.314Z,91769.19
2023-05-23T16:36:11.047Z,91773.91
2023-05-23T16:38:37.618Z,91776.66
2023-05-23T16:41:04.371Z,91780.59
2023-05-23T16:43:30.928Z,91770.69
2023-05-23T16:45:57.557Z,91778.28
2023-05-23T16:48:24.124Z,91781.63
2023-05-23T16:50:50.826Z,91790.56
2023-05-23T16:53:17.358Z,91781.22
2023-05-23T16:55:45.478Z,91789.56
2023-05-23T16:58:15.049Z,91786.63
2023-05-23T17:00:41.583Z,91794.81
2023-05-23T17:03:08.597Z,91790.44
2023-05-23T17:05:35.392Z,91790.31
2023-05-23T17:08:02.499Z,91790.88
2023-05-23T17:10:29.059Z,91800.53
2023-05-23T17:12:55.757Z,91799.78
2023-05-23T17:15:22.336Z,91799.78
2023-05-23T17:17:49.061Z,91805.34
2023-05-23T17:20:15.727Z,91801.09
2023-05-23T17:22:42.325Z,91808.00
2023-05-23T17:25:11.272Z,91808.00
2023-05-23T17:27:37.787Z,91814.25
2023-05-23T17:30:05.176Z,91810.03
2023-05-23T17:32:31.936Z,91817.63
2023-05-23T17:34:58.697Z,91817.47
2023-05-23T17:37:26.422Z,91818.78
2023-05-23T17:39:54.608Z,91824.34
2023-05-23T17:42:22.836Z,91821.44
2023-05-23T17:44:49.404Z,91825.50
2023-05-23T17:47:16.006Z,91826.97
2023-05-23T17:49:42.515Z,91822.88
2023-05-23T17:52:10.056Z,91832.81
2023-05-23T17:54:37.751Z,91825.94
2023-05-23T17:57:05.166Z,91825.34
2023-05-23T17:59:32.809Z,91827.53
2023-05-23T18:01:59.785Z,91836.03
2023-05-23T18:04:26.424Z,91831.94
2023-05-23T18:06:53.097Z,91844.50
2023-05-23T18:09:19.754Z,91836.03
2023-05-23T18:11:46.465Z,91840.88
2023-05-23T18:14:13.041Z,91844.19
2023-05-23T18:16:39.613Z,91853.84
2023-05-23T18:19:06.484Z,91850.94
2023-05-23T18:21:34.759Z,91849.47
2023-05-23T18:24:03.669Z,91847.28
2023-05-23T18:26:30.389Z,91849.19
2023-05-23T18:28:56.960Z,91854.75
2023-05-23T18:31:23.492Z,91854.75
2023-05-23T18:33:50.044Z,91858.81
2023-05-23T18:36:16.612Z,91864.38
2023-05-23T18:38:43.229Z,91866.28
2023-05-23T18:41:13.236Z,91876.63
2023-05-23T18:43:41.235Z,91872.41
2023-05-23T18:46:07.860Z,91874.59
2023-05-23T18:48:35.736Z,91874.44
2023-05-23T18:51:02.626Z,91872.41
2023-05-23T18:53:29.191Z,91870.94
2023-05-23T18:55:55.746Z,91876.50
2023-05-23T18:58:22.301Z,91883.38
2023-05-23T19:00:49.079Z,91882.63
2023-05-23T19:03:17.012Z,91886.16
2023-05-23T19:05:43.817Z,91884.09
2023-05-23T19:08:10.679Z,91884.09
2023-05-23T19:10:37.222Z,91879.69
2023-05-23T19:13:03.957Z,91888.19
2023-05-23T19:15:30.503Z,91891.53
2023-05-23T19:17:57.141Z,91896.34
2023-05-23T19:20:23.775Z,91890.09
2023-05-23T19:22:52.156Z,91898.53
2023-05-23T19:25:20.477Z,91899.28
2023-05-23T19:27:47.062Z,91895.91
2023-05-23T19:30:13.659Z,91903.09
2023-05-23T19:32:40.423Z,91900.31
2023-05-23T19:35:08.232Z,91901.78
2023-05-23T19:37:34.997Z,91903.22
2023-05-23T19:40:01.870Z,91902.53
2023-05-23T19:42:28.516Z,91900.31
2023-05-23T19:44:55.051Z,91904.41
2023-05-23T19:47:21.783Z,91903.66
2023-05-23T19:49:48.330Z,91913.75
2023-05-23T19:52:14.955Z,91913.00
2023-05-23T19:54:41.847Z,91909.53
2023-05-23T19:57:08.774Z,91910.81
2023-05-23T19:59:35.382Z,91909.38
2023-05-23T20:02:01.943Z,91912.72
2023-05-23T20:04:28.511Z,91914.03
2023-05-23T20:06:56.029Z,91910.22
2023-05-23T20:09:23.079Z,91927.00
2023-05-23T20:11:56.798Z,91911.69
2023-05-23T20:14:23.203Z,91925.41
2023-05-23T20:16:49.802Z,91923.97
2023-05-23T20:19:16.479Z,91929.50
2023-05-23T20:21:43.049Z,91928.03
2023-05-23T20:24:09.534Z,91930.81
2023-05-23T20:26:36.078Z,91932.28
2023-05-23T20:29:02.618Z,91929.50
2023-05-23T20:31:29.341Z,91916.94
2023-05-23T20:33:55.907Z,91933.56
2023-05-23T20:36:23.578Z,91934.91
2023-05-23T20:38:50.383Z,91931.38
2023-05-23T20:41:17.616Z,91929.19
2023-05-23T20:43:45.718Z,91924.81
2023-05-23T20:46:16.056Z,91927.00
2023-05-23T20:48:42.651Z,91934.75
2023-05-23T20:51:09.265Z,91940.16
2023-05-23T20:53:36.049Z,91935.19
2023-05-23T20:56:03.492Z,91935.91
2023-05-23T20:58:30.852Z,91935.91
2023-05-23T21:00:58.637Z,91934.44
2023-05-23T21:03:25.603Z,91935.19
2023-05-23T21:05:52.240Z,91926.25
2023-05-23T21:08:18.830Z,91929.19
2023-05-23T21:10:49.344Z,91926.56
2023-05-23T21:13:18.144Z,91931.69
2023-05-23T21:15:44.870Z,91933.16
2023-05-23T21:18:11.531Z,91934.63
2023-05-23T21:20:38.130Z,91940.88
2023-05-23T21:23:04.756Z,91942.94
2023-05-23T21:25:31.297Z,91933.88
2023-05-23T21:27:57.820Z,91943.53
2023-05-23T21:30:26.166Z,91936.50
2023-05-23T21:32:53.072Z,91947.44
2023-05-23T21:35:19.689Z,91943.22
2023-05-23T21:37:46.394Z,91948.03
2023-05-23T21:40:12.958Z,91952.84
2023-05-23T21:42:39.515Z,91945.09
2023-05-23T21:45:06.781Z,91945.09
2023-05-23T21:47:33.392Z,91948.47
2023-05-23T21:49:59.969Z,91947.72
2023-05-23T21:52:26.490Z,91949.78
2023-05-23T21:54:52.990Z,91954.00
2023-05-23T21:57:19.515Z,91952.41
2023-05-23T21:59:46.076Z,91959.41
2023-05-23T22:02:12.661Z,91960.72
2023-05-23T22:04:39.313Z,91961.47
2023-05-23T22:07:06.080Z,91960.72
2023-05-23T22:09:32.651Z,91954.44
2023-05-23T22:11:59.154Z,91955.03
2023-05-23T22:14:25.850Z,91958.38
2023-05-23T22:16:52.431Z,91951.34
2023-05-23T22:19:21.061Z,91946.41
2023-05-23T22:21:47.887Z,91947.88
2023-05-23T22:24:14.469Z,91949.31
2023-05-23T22:26:41.140Z,91949.31
2023-05-23T22:29:07.913Z,91948.59
2023-05-23T22:31:35.542Z,91947.13
2023-05-23T22:34:02.245Z,91947.88
2023-05-23T22:36:28.861Z,91946.41
2023-05-23T22:38:56.110Z,91956.03
2023-05-23T22:41:23.438Z,91944.94
2023-05-23T22:43:50.124Z,91946.41
2023-05-23T22:46:16.796Z,91950.06
2023-05-23T22:48:43.339Z,91935.44
2023-05-23T22:51:12.455Z,91930.06
2023-05-23T22:53:39.025Z,91941.31
2023-05-23T22:56:05.617Z,91934.44
2023-05-23T22:58:32.180Z,91935.91
2023-05-23T23:00:58.751Z,91935.34
2023-05-23T23:03:25.335Z,91931.06
2023-05-23T23:05:51.852Z,91937.22
2023-05-23T23:08:19.449Z,91930.06
2023-05-23T23:10:46.190Z,91934.88
2023-05-23T23:13:14.080Z,91935.59
2023-05-23T23:15:42.737Z,91928.59
2023-05-23T23:18:09.579Z,91934.00
2023-05-23T23:20:36.571Z,91931.22
2023-05-23T23:23:03.316Z,91932.38
2023-05-23T23:25:30.376Z,91926.81
2023-05-23T23:27:57.069Z,91925.38
2023-05-23T23:30:23.584Z,91921.09
2023-05-23T23:32:50.142Z,91912.75
2023-05-23T23:35:16.849Z,91917.59
2023-05-23T23:37:43.450Z,91914.81
2023-05-23T23:40:10.686Z,91911.16
2023-05-23T23:42:37.265Z,91919.47
2023-05-23T23:45:04.715Z,91912.47
2023-05-23T23:47:32.541Z,91908.38
2023-05-23T23:49:59.168Z,91901.38
2023-05-23T23:52:26.064Z,91914.50
2023-05-23T23:54:52.767Z,91904.00
2023-05-23T23:57:19.352Z,91909.53
2023-05-23T23:59:46.146Z,91909.22
